sensor_id;sensor_type;location;lat;lon;timestamp;temperature;humidity
39975;DHT22;25652;52.852;6.602;2024-01-30T00:01:46;6.30;87.90
39975;DHT22;25652;52.852;6.602;2024-01-30T00:04:12;6.30;87.90
39975;DHT22;25652;52.852;6.602;2024-01-30T00:06:37;6.30;88.00
39975;DHT22;25652;52.852;6.602;2024-01-30T00:09:03;6.30;87.80
39975;DHT22;25652;52.852;6.602;2024-01-30T00:11:28;6.30;87.90
39975;DHT22;25652;52.852;6.602;2024-01-30T00:13:54;6.30;87.90
39975;DHT22;25652;52.852;6.602;2024-01-30T00:16:23;6.30;88.00
39975;DHT22;25652;52.852;6.602;2024-01-30T00:18:48;6.20;88.00
39975;DHT22;25652;52.852;6.602;2024-01-30T00:21:14;6.30;87.90
39975;DHT22;25652;52.852;6.602;2024-01-30T00:23:39;6.30;87.90
39975;DHT22;25652;52.852;6.602;2024-01-30T00:26:05;6.30;88.00
39975;DHT22;25652;52.852;6.602;2024-01-30T00:28:30;6.20;88.60
39975;DHT22;25652;52.852;6.602;2024-01-30T00:30:56;6.20;88.00
39975;DHT22;25652;52.852;6.602;2024-01-30T00:33:21;6.30;88.00
39975;DHT22;25652;52.852;6.602;2024-01-30T00:35:47;6.20;87.90
39975;DHT22;25652;52.852;6.602;2024-01-30T00:38:12;6.20;87.90
39975;DHT22;25652;52.852;6.602;2024-01-30T00:40:38;6.20;87.80
39975;DHT22;25652;52.852;6.602;2024-01-30T00:43:03;6.20;87.90
39975;DHT22;25652;52.852;6.602;2024-01-30T00:45:29;6.20;87.80
39975;DHT22;25652;52.852;6.602;2024-01-30T00:47:54;6.20;87.90
39975;DHT22;25652;52.852;6.602;2024-01-30T00:50:20;6.20;87.80
39975;DHT22;25652;52.852;6.602;2024-01-30T00:52:45;6.20;87.80
39975;DHT22;25652;52.852;6.602;2024-01-30T00:55:11;6.20;87.80
39975;DHT22;25652;52.852;6.602;2024-01-30T00:57:36;6.20;87.90
39975;DHT22;25652;52.852;6.602;2024-01-30T01:00:03;6.20;87.90
39975;DHT22;25652;52.852;6.602;2024-01-30T01:02:28;6.20;87.80
39975;DHT22;25652;52.852;6.602;2024-01-30T01:04:54;6.20;87.80
39975;DHT22;25652;52.852;6.602;2024-01-30T01:07:19;6.20;87.90
39975;DHT22;25652;52.852;6.602;2024-01-30T01:09:45;6.10;87.90
39975;DHT22;25652;52.852;6.602;2024-01-30T01:12:10;6.10;88.00
39975;DHT22;25652;52.852;6.602;2024-01-30T01:14:36;6.10;87.90
39975;DHT22;25652;52.852;6.602;2024-01-30T01:17:01;6.10;87.90
39975;DHT22;25652;52.852;6.602;2024-01-30T01:19:27;6.10;87.90
39975;DHT22;25652;52.852;6.602;2024-01-30T01:21:52;6.10;87.90
39975;DHT22;25652;52.852;6.602;2024-01-30T01:24:18;6.10;87.80
39975;DHT22;25652;52.852;6.602;2024-01-30T01:26:43;6.00;88.50
39975;DHT22;25652;52.852;6.602;2024-01-30T01:29:09;6.00;87.90
39975;DHT22;25652;52.852;6.602;2024-01-30T01:31:34;6.00;88.00
39975;DHT22;25652;52.852;6.602;2024-01-30T01:34:00;6.00;88.00
39975;DHT22;25652;52.852;6.602;2024-01-30T01:36:25;6.00;88.00
39975;DHT22;25652;52.852;6.602;2024-01-30T01:38:51;6.00;88.00
39975;DHT22;25652;52.852;6.602;2024-01-30T01:41:16;6.00;88.00
39975;DHT22;25652;52.852;6.602;2024-01-30T01:43:42;6.00;87.80
39975;DHT22;25652;52.852;6.602;2024-01-30T01:46:08;6.00;87.90
39975;DHT22;25652;52.852;6.602;2024-01-30T01:48:34;6.00;87.90
39975;DHT22;25652;52.852;6.602;2024-01-30T01:50:59;5.90;87.90
39975;DHT22;25652;52.852;6.602;2024-01-30T01:53:25;6.00;87.90
39975;DHT22;25652;52.852;6.602;2024-01-30T01:55:51;5.90;87.80
39975;DHT22;25652;52.852;6.602;2024-01-30T01:58:18;5.90;87.90
39975;DHT22;25652;52.852;6.602;2024-01-30T02:00:44;5.90;87.90
39975;DHT22;25652;52.852;6.602;2024-01-30T02:03:10;5.90;88.00
39975;DHT22;25652;52.852;6.602;2024-01-30T02:05:36;5.90;88.00
39975;DHT22;25652;52.852;6.602;2024-01-30T02:08:02;5.90;87.90
39975;DHT22;25652;52.852;6.602;2024-01-30T02:10:28;5.90;87.90
39975;DHT22;25652;52.852;6.602;2024-01-30T02:12:53;5.90;87.90
39975;DHT22;25652;52.852;6.602;2024-01-30T02:15:19;5.90;87.90
39975;DHT22;25652;52.852;6.602;2024-01-30T02:17:44;5.90;87.90
39975;DHT22;25652;52.852;6.602;2024-01-30T02:20:10;5.90;87.90
39975;DHT22;25652;52.852;6.602;2024-01-30T02:22:36;5.90;88.00
39975;DHT22;25652;52.852;6.602;2024-01-30T02:25:02;5.90;87.90
39975;DHT22;25652;52.852;6.602;2024-01-30T02:27:28;5.90;87.90
39975;DHT22;25652;52.852;6.602;2024-01-30T02:29:53;5.90;87.80
39975;DHT22;25652;52.852;6.602;2024-01-30T02:32:19;5.90;87.80
39975;DHT22;25652;52.852;6.602;2024-01-30T02:34:44;5.90;87.90
39975;DHT22;25652;52.852;6.602;2024-01-30T02:37:10;5.90;87.80
39975;DHT22;25652;52.852;6.602;2024-01-30T02:39:35;5.90;87.70
39975;DHT22;25652;52.852;6.602;2024-01-30T02:42:01;5.90;87.70
39975;DHT22;25652;52.852;6.602;2024-01-30T02:44:26;5.90;87.80
39975;DHT22;25652;52.852;6.602;2024-01-30T02:46:52;5.90;87.80
39975;DHT22;25652;52.852;6.602;2024-01-30T02:49:17;5.90;87.90
39975;DHT22;25652;52.852;6.602;2024-01-30T02:51:43;5.90;87.80
39975;DHT22;25652;52.852;6.602;2024-01-30T02:54:08;5.90;87.80
39975;DHT22;25652;52.852;6.602;2024-01-30T02:56:34;5.90;87.90
39975;DHT22;25652;52.852;6.602;2024-01-30T02:58:59;5.90;87.90
39975;DHT22;25652;52.852;6.602;2024-01-30T03:01:25;5.90;87.80
39975;DHT22;25652;52.852;6.602;2024-01-30T03:03:50;5.90;87.70
39975;DHT22;25652;52.852;6.602;2024-01-30T03:06:16;5.90;87.80
39975;DHT22;25652;52.852;6.602;2024-01-30T03:08:41;5.90;87.70
39975;DHT22;25652;52.852;6.602;2024-01-30T03:11:06;5.90;87.90
39975;DHT22;25652;52.852;6.602;2024-01-30T03:13:32;5.90;87.90
39975;DHT22;25652;52.852;6.602;2024-01-30T03:15:57;5.90;87.80
39975;DHT22;25652;52.852;6.602;2024-01-30T03:18:23;5.90;87.80
39975;DHT22;25652;52.852;6.602;2024-01-30T03:20:48;5.90;87.80
39975;DHT22;25652;52.852;6.602;2024-01-30T03:23:14;5.90;88.00
39975;DHT22;25652;52.852;6.602;2024-01-30T03:25:39;5.90;87.90
39975;DHT22;25652;52.852;6.602;2024-01-30T03:28:05;5.90;87.90
39975;DHT22;25652;52.852;6.602;2024-01-30T03:30:30;5.90;87.90
39975;DHT22;25652;52.852;6.602;2024-01-30T03:32:56;5.90;88.00
39975;DHT22;25652;52.852;6.602;2024-01-30T03:35:21;5.90;88.10
39975;DHT22;25652;52.852;6.602;2024-01-30T03:37:47;5.90;87.90
39975;DHT22;25652;52.852;6.602;2024-01-30T03:40:13;5.90;88.00
39975;DHT22;25652;52.852;6.602;2024-01-30T03:42:38;5.90;87.90
39975;DHT22;25652;52.852;6.602;2024-01-30T03:45:04;5.90;88.00
39975;DHT22;25652;52.852;6.602;2024-01-30T03:47:30;5.90;88.00
39975;DHT22;25652;52.852;6.602;2024-01-30T03:49:55;5.90;88.00
39975;DHT22;25652;52.852;6.602;2024-01-30T03:52:20;5.90;88.10
39975;DHT22;25652;52.852;6.602;2024-01-30T03:54:46;5.90;87.90
39975;DHT22;25652;52.852;6.602;2024-01-30T03:57:11;5.90;88.00
39975;DHT22;25652;52.852;6.602;2024-01-30T03:59:37;5.90;88.00
39975;DHT22;25652;52.852;6.602;2024-01-30T04:02:02;5.90;88.10
39975;DHT22;25652;52.852;6.602;2024-01-30T04:04:28;5.90;88.00
39975;DHT22;25652;52.852;6.602;2024-01-30T04:06:54;5.90;88.10
39975;DHT22;25652;52.852;6.602;2024-01-30T04:09:19;5.90;88.10
39975;DHT22;25652;52.852;6.602;2024-01-30T04:11:45;5.90;88.10
39975;DHT22;25652;52.852;6.602;2024-01-30T04:14:10;5.90;88.10
39975;DHT22;25652;52.852;6.602;2024-01-30T04:16:36;5.90;88.10
39975;DHT22;25652;52.852;6.602;2024-01-30T04:19:02;5.90;88.00
39975;DHT22;25652;52.852;6.602;2024-01-30T04:21:27;5.90;88.00
39975;DHT22;25652;52.852;6.602;2024-01-30T04:23:53;5.90;88.00
39975;DHT22;25652;52.852;6.602;2024-01-30T04:26:18;5.90;88.00
39975;DHT22;25652;52.852;6.602;2024-01-30T04:28:44;5.90;88.00
39975;DHT22;25652;52.852;6.602;2024-01-30T04:31:10;5.90;88.00
39975;DHT22;25652;52.852;6.602;2024-01-30T04:33:36;5.90;88.00
39975;DHT22;25652;52.852;6.602;2024-01-30T04:36:02;6.00;88.10
39975;DHT22;25652;52.852;6.602;2024-01-30T04:38:28;6.00;88.10
39975;DHT22;25652;52.852;6.602;2024-01-30T04:40:53;6.00;88.10
39975;DHT22;25652;52.852;6.602;2024-01-30T04:43:18;6.00;88.20
39975;DHT22;25652;52.852;6.602;2024-01-30T04:45:44;6.00;88.10
39975;DHT22;25652;52.852;6.602;2024-01-30T04:48:09;6.00;88.20
39975;DHT22;25652;52.852;6.602;2024-01-30T04:50:35;5.90;88.00
39975;DHT22;25652;52.852;6.602;2024-01-30T04:53:00;6.00;88.10
39975;DHT22;25652;52.852;6.602;2024-01-30T04:55:26;6.00;88.20
39975;DHT22;25652;52.852;6.602;2024-01-30T04:57:51;6.00;88.00
39975;DHT22;25652;52.852;6.602;2024-01-30T05:00:17;6.00;88.10
39975;DHT22;25652;52.852;6.602;2024-01-30T05:02:42;6.00;88.10
39975;DHT22;25652;52.852;6.602;2024-01-30T05:05:08;6.00;88.10
39975;DHT22;25652;52.852;6.602;2024-01-30T05:07:33;6.00;88.10
39975;DHT22;25652;52.852;6.602;2024-01-30T05:09:59;6.00;88.10
39975;DHT22;25652;52.852;6.602;2024-01-30T05:12:25;6.10;88.10
39975;DHT22;25652;52.852;6.602;2024-01-30T05:14:50;6.00;88.10
39975;DHT22;25652;52.852;6.602;2024-01-30T05:17:16;6.00;88.20
39975;DHT22;25652;52.852;6.602;2024-01-30T05:19:43;6.10;88.80
39975;DHT22;25652;52.852;6.602;2024-01-30T05:22:08;6.10;88.30
39975;DHT22;25652;52.852;6.602;2024-01-30T05:24:35;6.10;88.20
39975;DHT22;25652;52.852;6.602;2024-01-30T05:27:01;6.10;88.20
39975;DHT22;25652;52.852;6.602;2024-01-30T05:29:27;6.10;88.20
39975;DHT22;25652;52.852;6.602;2024-01-30T05:31:52;6.10;88.30
39975;DHT22;25652;52.852;6.602;2024-01-30T05:34:18;6.10;88.10
39975;DHT22;25652;52.852;6.602;2024-01-30T05:36:43;6.10;88.10
39975;DHT22;25652;52.852;6.602;2024-01-30T05:39:09;6.10;88.10
39975;DHT22;25652;52.852;6.602;2024-01-30T05:41:34;6.10;88.10
39975;DHT22;25652;52.852;6.602;2024-01-30T05:44:00;6.20;88.10
39975;DHT22;25652;52.852;6.602;2024-01-30T05:46:25;6.10;88.40
39975;DHT22;25652;52.852;6.602;2024-01-30T05:48:50;6.20;88.30
39975;DHT22;25652;52.852;6.602;2024-01-30T05:51:16;6.20;88.30
39975;DHT22;25652;52.852;6.602;2024-01-30T05:53:41;6.20;88.10
39975;DHT22;25652;52.852;6.602;2024-01-30T05:56:07;6.20;88.00
39975;DHT22;25652;52.852;6.602;2024-01-30T05:58:32;6.30;88.10
39975;DHT22;25652;52.852;6.602;2024-01-30T06:00:58;6.20;88.00
39975;DHT22;25652;52.852;6.602;2024-01-30T06:03:23;6.30;88.00
39975;DHT22;25652;52.852;6.602;2024-01-30T06:05:49;6.30;88.10
39975;DHT22;25652;52.852;6.602;2024-01-30T06:08:14;6.30;88.10
39975;DHT22;25652;52.852;6.602;2024-01-30T06:10:40;6.30;88.10
39975;DHT22;25652;52.852;6.602;2024-01-30T06:13:06;6.30;88.10
39975;DHT22;25652;52.852;6.602;2024-01-30T06:15:31;6.30;88.10
39975;DHT22;25652;52.852;6.602;2024-01-30T06:17:57;6.30;88.10
39975;DHT22;25652;52.852;6.602;2024-01-30T06:20:22;6.30;88.30
39975;DHT22;25652;52.852;6.602;2024-01-30T06:22:48;6.30;88.10
39975;DHT22;25652;52.852;6.602;2024-01-30T06:25:13;6.30;88.10
39975;DHT22;25652;52.852;6.602;2024-01-30T06:27:38;6.30;88.00
39975;DHT22;25652;52.852;6.602;2024-01-30T06:30:05;6.40;88.60
39975;DHT22;25652;52.852;6.602;2024-01-30T06:32:30;7.00;88.30
39975;DHT22;25652;52.852;6.602;2024-01-30T06:34:56;7.70;86.80
39975;DHT22;25652;52.852;6.602;2024-01-30T06:37:21;8.30;85.10
39975;DHT22;25652;52.852;6.602;2024-01-30T06:39:47;8.30;84.10
39975;DHT22;25652;52.852;6.602;2024-01-30T06:42:12;8.30;83.60
39975;DHT22;25652;52.852;6.602;2024-01-30T06:44:38;8.20;83.70
39975;DHT22;25652;52.852;6.602;2024-01-30T06:47:03;8.10;83.80
39975;DHT22;25652;52.852;6.602;2024-01-30T06:49:29;8.00;84.10
39975;DHT22;25652;52.852;6.602;2024-01-30T06:51:54;7.90;84.60
39975;DHT22;25652;52.852;6.602;2024-01-30T06:54:20;7.80;84.80
39975;DHT22;25652;52.852;6.602;2024-01-30T06:56:45;7.70;85.10
39975;DHT22;25652;52.852;6.602;2024-01-30T06:59:11;7.70;85.30
39975;DHT22;25652;52.852;6.602;2024-01-30T07:01:36;7.70;85.50
39975;DHT22;25652;52.852;6.602;2024-01-30T07:04:01;7.60;85.70
39975;DHT22;25652;52.852;6.602;2024-01-30T07:06:27;7.50;85.90
39975;DHT22;25652;52.852;6.602;2024-01-30T07:08:52;7.50;86.00
39975;DHT22;25652;52.852;6.602;2024-01-30T07:11:21;7.40;86.30
39975;DHT22;25652;52.852;6.602;2024-01-30T07:13:46;7.40;86.30
39975;DHT22;25652;52.852;6.602;2024-01-30T07:16:12;7.40;86.30
39975;DHT22;25652;52.852;6.602;2024-01-30T07:18:37;7.40;87.20
39975;DHT22;25652;52.852;6.602;2024-01-30T07:21:03;7.30;86.70
39975;DHT22;25652;52.852;6.602;2024-01-30T07:23:29;7.30;86.90
39975;DHT22;25652;52.852;6.602;2024-01-30T07:25:54;7.30;86.90
39975;DHT22;25652;52.852;6.602;2024-01-30T07:28:20;7.30;87.20
39975;DHT22;25652;52.852;6.602;2024-01-30T07:30:45;7.50;87.70
39975;DHT22;25652;52.852;6.602;2024-01-30T07:33:10;7.90;86.40
39975;DHT22;25652;52.852;6.602;2024-01-30T07:35:36;8.00;85.70
39975;DHT22;25652;52.852;6.602;2024-01-30T07:38:02;8.00;85.40
39975;DHT22;25652;52.852;6.602;2024-01-30T07:40:27;8.00;85.10
39975;DHT22;25652;52.852;6.602;2024-01-30T07:42:53;8.00;85.20
39975;DHT22;25652;52.852;6.602;2024-01-30T07:45:19;7.90;85.40
39975;DHT22;25652;52.852;6.602;2024-01-30T07:47:45;7.90;85.60
39975;DHT22;25652;52.852;6.602;2024-01-30T07:50:10;7.90;85.70
39975;DHT22;25652;52.852;6.602;2024-01-30T07:52:36;7.80;85.80
39975;DHT22;25652;52.852;6.602;2024-01-30T07:55:01;7.80;85.70
39975;DHT22;25652;52.852;6.602;2024-01-30T07:57:27;7.80;85.90
39975;DHT22;25652;52.852;6.602;2024-01-30T07:59:52;7.70;86.00
39975;DHT22;25652;52.852;6.602;2024-01-30T08:02:18;7.70;86.70
39975;DHT22;25652;52.852;6.602;2024-01-30T08:04:43;7.70;86.10
39975;DHT22;25652;52.852;6.602;2024-01-30T08:07:09;7.70;86.30
39975;DHT22;25652;52.852;6.602;2024-01-30T08:09:34;7.70;86.50
39975;DHT22;25652;52.852;6.602;2024-01-30T08:12:00;7.60;86.50
39975;DHT22;25652;52.852;6.602;2024-01-30T08:14:25;7.60;86.70
39975;DHT22;25652;52.852;6.602;2024-01-30T08:16:50;7.60;86.80
39975;DHT22;25652;52.852;6.602;2024-01-30T08:19:16;7.60;87.60
39975;DHT22;25652;52.852;6.602;2024-01-30T08:21:41;7.60;87.00
39975;DHT22;25652;52.852;6.602;2024-01-30T08:24:07;7.60;87.00
39975;DHT22;25652;52.852;6.602;2024-01-30T08:26:35;7.60;87.10
39975;DHT22;25652;52.852;6.602;2024-01-30T08:29:01;7.50;87.20
39975;DHT22;25652;52.852;6.602;2024-01-30T08:31:27;7.50;87.20
39975;DHT22;25652;52.852;6.602;2024-01-30T08:33:52;7.50;87.30
39975;DHT22;25652;52.852;6.602;2024-01-30T08:36:18;7.50;87.50
39975;DHT22;25652;52.852;6.602;2024-01-30T08:38:43;7.50;87.50
39975;DHT22;25652;52.852;6.602;2024-01-30T08:41:09;7.50;87.50
39975;DHT22;25652;52.852;6.602;2024-01-30T08:43:34;7.50;87.70
39975;DHT22;25652;52.852;6.602;2024-01-30T08:46:00;7.50;87.70
39975;DHT22;25652;52.852;6.602;2024-01-30T08:48:26;7.50;87.50
39975;DHT22;25652;52.852;6.602;2024-01-30T08:50:52;7.50;87.70
39975;DHT22;25652;52.852;6.602;2024-01-30T08:53:17;7.60;87.80
39975;DHT22;25652;52.852;6.602;2024-01-30T08:55:43;7.60;87.80
39975;DHT22;25652;52.852;6.602;2024-01-30T08:58:08;7.60;87.90
39975;DHT22;25652;52.852;6.602;2024-01-30T09:00:34;7.60;87.70
39975;DHT22;25652;52.852;6.602;2024-01-30T09:02:59;7.60;87.80
39975;DHT22;25652;52.852;6.602;2024-01-30T09:05:25;7.60;87.90
39975;DHT22;25652;52.852;6.602;2024-01-30T09:07:50;7.60;87.90
39975;DHT22;25652;52.852;6.602;2024-01-30T09:10:16;7.70;87.70
39975;DHT22;25652;52.852;6.602;2024-01-30T09:12:41;7.70;87.60
39975;DHT22;25652;52.852;6.602;2024-01-30T09:15:07;7.80;87.60
39975;DHT22;25652;52.852;6.602;2024-01-30T09:17:33;7.80;87.50
39975;DHT22;25652;52.852;6.602;2024-01-30T09:19:58;7.80;87.60
39975;DHT22;25652;52.852;6.602;2024-01-30T09:22:24;7.80;87.50
39975;DHT22;25652;52.852;6.602;2024-01-30T09:24:50;7.80;87.40
39975;DHT22;25652;52.852;6.602;2024-01-30T09:27:15;7.80;87.50
39975;DHT22;25652;52.852;6.602;2024-01-30T09:29:41;7.90;87.60
39975;DHT22;25652;52.852;6.602;2024-01-30T09:32:06;7.90;87.40
39975;DHT22;25652;52.852;6.602;2024-01-30T09:34:32;7.90;87.70
39975;DHT22;25652;52.852;6.602;2024-01-30T09:37:01;7.90;87.50
39975;DHT22;25652;52.852;6.602;2024-01-30T09:39:26;8.00;87.50
39975;DHT22;25652;52.852;6.602;2024-01-30T09:44:35;8.00;87.30
39975;DHT22;25652;52.852;6.602;2024-01-30T09:47:00;8.10;87.30
39975;DHT22;25652;52.852;6.602;2024-01-30T09:49:26;8.10;87.30
39975;DHT22;25652;52.852;6.602;2024-01-30T09:51:51;8.10;87.20
39975;DHT22;25652;52.852;6.602;2024-01-30T09:54:18;8.10;87.20
39975;DHT22;25652;52.852;6.602;2024-01-30T09:56:44;8.20;87.00
39975;DHT22;25652;52.852;6.602;2024-01-30T09:59:10;8.20;87.20
39975;DHT22;25652;52.852;6.602;2024-01-30T10:01:36;8.20;87.00
39975;DHT22;25652;52.852;6.602;2024-01-30T10:04:01;8.20;86.90
39975;DHT22;25652;52.852;6.602;2024-01-30T10:06:27;8.20;86.90
39975;DHT22;25652;52.852;6.602;2024-01-30T10:08:53;8.30;87.00
39975;DHT22;25652;52.852;6.602;2024-01-30T10:11:18;8.30;87.00
39975;DHT22;25652;52.852;6.602;2024-01-30T10:13:44;8.30;86.80
39975;DHT22;25652;52.852;6.602;2024-01-30T10:16:09;8.40;86.90
39975;DHT22;25652;52.852;6.602;2024-01-30T10:18:35;8.40;87.50
39975;DHT22;25652;52.852;6.602;2024-01-30T10:21:00;8.40;86.80
39975;DHT22;25652;52.852;6.602;2024-01-30T10:23:26;8.40;86.90
39975;DHT22;25652;52.852;6.602;2024-01-30T10:25:52;8.50;86.90
39975;DHT22;25652;52.852;6.602;2024-01-30T10:28:17;8.50;86.70
39975;DHT22;25652;52.852;6.602;2024-01-30T10:30:43;8.50;86.60
39975;DHT22;25652;52.852;6.602;2024-01-30T10:33:09;8.60;86.60
39975;DHT22;25652;52.852;6.602;2024-01-30T10:35:34;8.60;86.80
39975;DHT22;25652;52.852;6.602;2024-01-30T10:38:00;8.60;86.50
39975;DHT22;25652;52.852;6.602;2024-01-30T10:40:28;8.60;86.50
39975;DHT22;25652;52.852;6.602;2024-01-30T10:42:55;8.60;86.70
39975;DHT22;25652;52.852;6.602;2024-01-30T10:45:22;8.70;86.50
39975;DHT22;25652;52.852;6.602;2024-01-30T10:47:49;8.70;86.50
39975;DHT22;25652;52.852;6.602;2024-01-30T10:50:15;8.70;86.40
39975;DHT22;25652;52.852;6.602;2024-01-30T10:52:41;8.80;86.40
39975;DHT22;25652;52.852;6.602;2024-01-30T10:55:07;8.80;86.40
39975;DHT22;25652;52.852;6.602;2024-01-30T10:57:34;8.80;86.50
39975;DHT22;25652;52.852;6.602;2024-01-30T11:00:02;8.80;86.40
39975;DHT22;25652;52.852;6.602;2024-01-30T11:02:29;8.80;86.40
39975;DHT22;25652;52.852;6.602;2024-01-30T11:04:57;8.80;86.60
39975;DHT22;25652;52.852;6.602;2024-01-30T11:07:28;8.90;86.50
39975;DHT22;25652;52.852;6.602;2024-01-30T11:10:00;8.90;86.60
39975;DHT22;25652;52.852;6.602;2024-01-30T11:12:27;8.90;86.40
39975;DHT22;25652;52.852;6.602;2024-01-30T11:15:03;8.90;86.60
39975;DHT22;25652;52.852;6.602;2024-01-30T11:20:21;9.00;86.60
39975;DHT22;25652;52.852;6.602;2024-01-30T11:22:49;9.00;87.20
39975;DHT22;25652;52.852;6.602;2024-01-30T11:25:16;9.00;86.40
39975;DHT22;25652;52.852;6.602;2024-01-30T11:27:43;9.10;86.50
39975;DHT22;25652;52.852;6.602;2024-01-30T11:30:09;9.10;86.30
39975;DHT22;25652;52.852;6.602;2024-01-30T11:32:34;9.10;86.50
39975;DHT22;25652;52.852;6.602;2024-01-30T11:35:02;9.10;86.60
39975;DHT22;25652;52.852;6.602;2024-01-30T11:37:28;9.10;86.60
39975;DHT22;25652;52.852;6.602;2024-01-30T11:39:56;9.20;86.50
39975;DHT22;25652;52.852;6.602;2024-01-30T11:42:23;9.20;86.50
39975;DHT22;25652;52.852;6.602;2024-01-30T11:44:49;9.20;86.60
39975;DHT22;25652;52.852;6.602;2024-01-30T11:47:14;9.20;86.60
39975;DHT22;25652;52.852;6.602;2024-01-30T11:49:41;9.20;86.50
39975;DHT22;25652;52.852;6.602;2024-01-30T11:52:06;9.20;86.40
39975;DHT22;25652;52.852;6.602;2024-01-30T11:54:32;9.30;86.40
39975;DHT22;25652;52.852;6.602;2024-01-30T11:56:57;9.30;86.30
39975;DHT22;25652;52.852;6.602;2024-01-30T11:59:23;9.30;86.30
39975;DHT22;25652;52.852;6.602;2024-01-30T12:01:49;9.40;86.30
39975;DHT22;25652;52.852;6.602;2024-01-30T12:04:16;9.40;86.50
39975;DHT22;25652;52.852;6.602;2024-01-30T12:06:42;9.40;86.40
39975;DHT22;25652;52.852;6.602;2024-01-30T12:09:09;9.50;86.40
39975;DHT22;25652;52.852;6.602;2024-01-30T12:11:48;9.50;86.30
39975;DHT22;25652;52.852;6.602;2024-01-30T12:14:14;9.50;86.20
39975;DHT22;25652;52.852;6.602;2024-01-30T12:16:40;9.50;86.60
39975;DHT22;25652;52.852;6.602;2024-01-30T12:19:05;9.60;86.50
39975;DHT22;25652;52.852;6.602;2024-01-30T12:21:31;9.60;86.40
39975;DHT22;25652;52.852;6.602;2024-01-30T12:23:57;9.60;86.50
39975;DHT22;25652;52.852;6.602;2024-01-30T12:26:23;9.70;86.50
39975;DHT22;25652;52.852;6.602;2024-01-30T12:28:49;9.70;86.40
39975;DHT22;25652;52.852;6.602;2024-01-30T12:31:14;9.70;86.40
39975;DHT22;25652;52.852;6.602;2024-01-30T12:33:40;9.70;86.40
39975;DHT22;25652;52.852;6.602;2024-01-30T12:36:05;9.80;86.40
39975;DHT22;25652;52.852;6.602;2024-01-30T12:38:31;9.80;86.60
39975;DHT22;25652;52.852;6.602;2024-01-30T12:40:57;9.80;86.50
39975;DHT22;25652;52.852;6.602;2024-01-30T12:43:23;9.90;86.40
39975;DHT22;25652;52.852;6.602;2024-01-30T12:45:50;9.90;86.40
39975;DHT22;25652;52.852;6.602;2024-01-30T12:48:15;9.90;86.30
39975;DHT22;25652;52.852;6.602;2024-01-30T12:50:41;9.90;86.50
39975;DHT22;25652;52.852;6.602;2024-01-30T12:53:06;9.90;86.40
39975;DHT22;25652;52.852;6.602;2024-01-30T12:55:32;9.90;86.30
39975;DHT22;25652;52.852;6.602;2024-01-30T12:57:57;10.00;86.40
39975;DHT22;25652;52.852;6.602;2024-01-30T13:00:23;10.00;86.40
39975;DHT22;25652;52.852;6.602;2024-01-30T13:02:48;10.00;86.30
39975;DHT22;25652;52.852;6.602;2024-01-30T13:05:14;10.10;86.40
39975;DHT22;25652;52.852;6.602;2024-01-30T13:07:39;10.10;86.30
39975;DHT22;25652;52.852;6.602;2024-01-30T13:10:05;10.10;86.20
39975;DHT22;25652;52.852;6.602;2024-01-30T13:12:31;10.10;86.20
39975;DHT22;25652;52.852;6.602;2024-01-30T13:14:56;10.10;86.10
39975;DHT22;25652;52.852;6.602;2024-01-30T13:17:22;10.10;86.00
39975;DHT22;25652;52.852;6.602;2024-01-30T13:19:47;10.20;86.10
39975;DHT22;25652;52.852;6.602;2024-01-30T13:22:13;10.20;86.00
39975;DHT22;25652;52.852;6.602;2024-01-30T13:24:38;10.20;86.00
39975;DHT22;25652;52.852;6.602;2024-01-30T13:27:04;10.20;86.00
39975;DHT22;25652;52.852;6.602;2024-01-30T13:29:29;10.20;86.00
39975;DHT22;25652;52.852;6.602;2024-01-30T13:31:55;10.20;85.90
39975;DHT22;25652;52.852;6.602;2024-01-30T13:34:20;10.20;86.00
39975;DHT22;25652;52.852;6.602;2024-01-30T13:36:46;10.20;86.00
39975;DHT22;25652;52.852;6.602;2024-01-30T13:39:11;10.20;86.00
39975;DHT22;25652;52.852;6.602;2024-01-30T13:41:36;10.20;86.00
39975;DHT22;25652;52.852;6.602;2024-01-30T13:44:02;10.20;86.00
39975;DHT22;25652;52.852;6.602;2024-01-30T13:46:27;10.20;86.00
39975;DHT22;25652;52.852;6.602;2024-01-30T13:48:53;10.20;86.10
39975;DHT22;25652;52.852;6.602;2024-01-30T13:51:18;10.20;86.00
39975;DHT22;25652;52.852;6.602;2024-01-30T13:53:44;10.20;86.00
39975;DHT22;25652;52.852;6.602;2024-01-30T13:56:09;10.30;86.10
39975;DHT22;25652;52.852;6.602;2024-01-30T13:58:35;10.30;86.10
39975;DHT22;25652;52.852;6.602;2024-01-30T14:01:00;10.30;86.00
39975;DHT22;25652;52.852;6.602;2024-01-30T14:03:26;10.30;86.10
39975;DHT22;25652;52.852;6.602;2024-01-30T14:05:51;10.30;86.10
39975;DHT22;25652;52.852;6.602;2024-01-30T14:08:17;10.30;86.10
39975;DHT22;25652;52.852;6.602;2024-01-30T14:10:42;10.30;86.20
39975;DHT22;25652;52.852;6.602;2024-01-30T14:13:08;10.30;86.10
39975;DHT22;25652;52.852;6.602;2024-01-30T14:15:33;10.30;86.00
39975;DHT22;25652;52.852;6.602;2024-01-30T14:17:59;10.30;86.00
39975;DHT22;25652;52.852;6.602;2024-01-30T14:20:25;10.30;86.10
39975;DHT22;25652;52.852;6.602;2024-01-30T14:22:50;10.30;86.10
39975;DHT22;25652;52.852;6.602;2024-01-30T14:25:16;10.30;86.20
39975;DHT22;25652;52.852;6.602;2024-01-30T14:27:41;10.30;86.20
39975;DHT22;25652;52.852;6.602;2024-01-30T14:30:10;10.30;86.40
39975;DHT22;25652;52.852;6.602;2024-01-30T14:32:36;10.30;86.30
39975;DHT22;25652;52.852;6.602;2024-01-30T14:35:01;10.30;86.50
39975;DHT22;25652;52.852;6.602;2024-01-30T14:37:27;10.30;86.50
39975;DHT22;25652;52.852;6.602;2024-01-30T14:39:52;10.30;86.50
39975;DHT22;25652;52.852;6.602;2024-01-30T14:42:18;10.30;86.50
39975;DHT22;25652;52.852;6.602;2024-01-30T14:44:43;10.30;86.60
39975;DHT22;25652;52.852;6.602;2024-01-30T14:47:09;10.30;86.60
39975;DHT22;25652;52.852;6.602;2024-01-30T14:49:34;10.30;86.60
39975;DHT22;25652;52.852;6.602;2024-01-30T14:52:00;10.30;86.70
39975;DHT22;25652;52.852;6.602;2024-01-30T14:54:26;10.30;86.80
39975;DHT22;25652;52.852;6.602;2024-01-30T14:56:51;10.20;86.80
39975;DHT22;25652;52.852;6.602;2024-01-30T14:59:17;10.30;86.80
39975;DHT22;25652;52.852;6.602;2024-01-30T15:01:42;10.30;86.90
39975;DHT22;25652;52.852;6.602;2024-01-30T15:04:08;10.30;86.80
39975;DHT22;25652;52.852;6.602;2024-01-30T15:06:33;10.20;86.80
39975;DHT22;25652;52.852;6.602;2024-01-30T15:08:59;10.20;86.80
39975;DHT22;25652;52.852;6.602;2024-01-30T15:11:24;10.30;86.90
39975;DHT22;25652;52.852;6.602;2024-01-30T15:13:50;10.30;86.90
39975;DHT22;25652;52.852;6.602;2024-01-30T15:16:15;10.20;86.90
39975;DHT22;25652;52.852;6.602;2024-01-30T15:18:41;10.20;87.00
39975;DHT22;25652;52.852;6.602;2024-01-30T15:21:06;10.30;87.00
39975;DHT22;25652;52.852;6.602;2024-01-30T15:23:32;10.20;87.00
39975;DHT22;25652;52.852;6.602;2024-01-30T15:25:57;10.20;87.10
39975;DHT22;25652;52.852;6.602;2024-01-30T15:28:36;10.20;87.10
39975;DHT22;25652;52.852;6.602;2024-01-30T15:31:03;10.20;87.10
39975;DHT22;25652;52.852;6.602;2024-01-30T15:33:28;10.10;87.30
39975;DHT22;25652;52.852;6.602;2024-01-30T15:35:54;10.10;87.20
39975;DHT22;25652;52.852;6.602;2024-01-30T15:38:19;10.10;87.30